Time;durP1;ratioP1;P1;durP2;ratioP2;P2;SDS_P1;SDS_P2;PMS_P1;PMS_P2;Temp;Humidity;BMP_temperature;BMP_pressure;BME280_temperature;BME280_humidity;BME280_pressure;Samples;Min_cycle;Max_cycle;Signal;HPM_P1;HPM_P2
2022/07/12 00:00:14;;;;;;;3.55;3.25;;;;;;;16.14;64.55664;95915.27;;;;
2022/07/12 00:01:15;;;;;;;3.55;3.25;;;;;;;16.14;64.55664;95915.27;;;;
2022/07/12 00:02:17;;;;;;;3.55;3.25;;;;;;;16.14;64.55664;95915.27;;;;
2022/07/12 00:03:18;;;;;;;3.55;3.25;;;;;;;16.14;64.55664;95915.27;;;;
2022/07/12 00:04:19;;;;;;;3.55;3.25;;;;;;;16.14;64.55664;95915.27;;;;
2022/07/12 00:05:19;;;;;;;3.55;3.25;;;;;;;16.14;64.55664;95915.27;;;;
2022/07/12 00:06:20;;;;;;;3.55;3.25;;;;;;;16.14;64.55664;95915.27;;;;
2022/07/12 00:07:20;;;;;;;3.65;3.3;;;;;;;16.03;64.91113;95917.83;;;;
2022/07/12 00:08:21;;;;;;;3.65;3.3;;;;;;;16.03;64.91113;95917.83;;;;
2022/07/12 00:09:21;;;;;;;3.65;3.3;;;;;;;16.03;64.91113;95917.83;;;;
2022/07/12 00:10:22;;;;;;;3.65;3.3;;;;;;;16.03;64.91113;95917.83;;;;
2022/07/12 00:11:22;;;;;;;3.65;3.3;;;;;;;16.03;64.91113;95917.83;;;;
2022/07/12 00:12:23;;;;;;;3.65;3.3;;;;;;;16.03;64.91113;95917.83;;;;
2022/07/12 00:13:24;;;;;;;3.65;3.3;;;;;;;16.03;64.91113;95917.83;;;;
2022/07/12 00:14:24;;;;;;;3.65;3.3;;;;;;;16.03;64.91113;95917.83;;;;
2022/07/12 00:15:26;;;;;;;3.65;3.3;;;;;;;16.03;64.91113;95917.83;;;;
2022/07/12 00:16:27;;;;;;;3.65;3.3;;;;;;;16.03;64.91113;95917.83;;;;
2022/07/12 00:17:27;;;;;;;3.55;3.25;;;;;;;16.05;65.17773;95914.38;;;;
2022/07/12 00:18:28;;;;;;;3.55;3.25;;;;;;;16.05;65.17773;95914.38;;;;
2022/07/12 00:19:28;;;;;;;3.55;3.25;;;;;;;16.05;65.17773;95914.38;;;;
2022/07/12 00:20:29;;;;;;;3.55;3.25;;;;;;;16.05;65.17773;95914.38;;;;
2022/07/12 00:21:29;;;;;;;3.55;3.25;;;;;;;16.05;65.17773;95914.38;;;;
2022/07/12 00:22:30;;;;;;;3.55;3.25;;;;;;;16.05;65.17773;95914.38;;;;
2022/07/12 00:23:30;;;;;;;3.55;3.25;;;;;;;16.05;65.17773;95914.38;;;;
2022/07/12 00:24:31;;;;;;;3.55;3.25;;;;;;;16.05;65.17773;95914.38;;;;
2022/07/12 00:25:31;;;;;;;3.55;3.25;;;;;;;16.05;65.17773;95914.38;;;;
2022/07/12 00:26:32;;;;;;;3.55;3.25;;;;;;;16.05;65.17773;95914.38;;;;
2022/07/12 00:27:32;;;;;;;3.55;3.25;;;;;;;16.05;65.17773;95914.38;;;;
2022/07/12 00:28:34;;;;;;;3.55;3.25;;;;;;;16.03;65.46875;95916.91;;;;
2022/07/12 00:29:35;;;;;;;3.55;3.25;;;;;;;16.03;65.46875;95916.91;;;;
2022/07/12 00:30:36;;;;;;;3.55;3.25;;;;;;;16.03;65.46875;95916.91;;;;
2022/07/12 00:31:36;;;;;;;3.55;3.25;;;;;;;16.03;65.46875;95916.91;;;;
2022/07/12 00:32:37;;;;;;;3.55;3.25;;;;;;;16.03;65.46875;95916.91;;;;
2022/07/12 00:33:37;;;;;;;3.55;3.25;;;;;;;16.03;65.46875;95916.91;;;;
2022/07/12 00:34:38;;;;;;;3.55;3.25;;;;;;;16.03;65.46875;95916.91;;;;
2022/07/12 00:35:38;;;;;;;3.55;3.25;;;;;;;16.03;65.46875;95916.91;;;;
2022/07/12 00:36:39;;;;;;;3.55;3.25;;;;;;;16.03;65.46875;95916.91;;;;
2022/07/12 00:37:39;;;;;;;3.55;3.25;;;;;;;16.03;65.46875;95916.91;;;;
2022/07/12 00:38:40;;;;;;;3.55;3.25;;;;;;;16.03;65.46875;95916.91;;;;
2022/07/12 00:39:41;;;;;;;3.85;3.4;;;;;;;16.06;65.66016;95914.18;;;;
2022/07/12 00:40:41;;;;;;;3.85;3.4;;;;;;;16.06;65.66016;95914.18;;;;
2022/07/12 00:41:42;;;;;;;3.85;3.4;;;;;;;16.06;65.66016;95914.18;;;;
2022/07/12 00:42:43;;;;;;;3.85;3.4;;;;;;;16.06;65.66016;95914.18;;;;
2022/07/12 00:43:43;;;;;;;3.85;3.4;;;;;;;16.06;65.66016;95914.18;;;;
2022/07/12 00:44:44;;;;;;;3.85;3.4;;;;;;;16.06;65.66016;95914.18;;;;
2022/07/12 00:45:44;;;;;;;3.85;3.4;;;;;;;16.06;65.66016;95914.18;;;;
2022/07/12 00:46:45;;;;;;;3.85;3.4;;;;;;;16.06;65.66016;95914.18;;;;
2022/07/12 00:47:46;;;;;;;3.85;3.4;;;;;;;16.06;65.66016;95914.18;;;;
2022/07/12 00:48:49;;;;;;;3.85;3.4;;;;;;;16.06;65.66016;95914.18;;;;
2022/07/12 00:49:51;;;;;;;3.5;3.2;;;;;;;15.96;65.9502;95917.93;;;;
2022/07/12 00:50:51;;;;;;;3.5;3.2;;;;;;;15.96;65.9502;95917.93;;;;
2022/07/12 00:51:54;;;;;;;3.5;3.2;;;;;;;15.96;65.9502;95917.93;;;;
2022/07/12 00:52:54;;;;;;;3.5;3.2;;;;;;;15.96;65.9502;95917.93;;;;
2022/07/12 00:53:55;;;;;;;3.5;3.2;;;;;;;15.96;65.9502;95917.93;;;;
2022/07/12 00:54:58;;;;;;;3.5;3.2;;;;;;;15.96;65.9502;95917.93;;;;
2022/07/12 00:55:59;;;;;;;3.5;3.2;;;;;;;15.96;65.9502;95917.93;;;;
2022/07/12 00:56:59;;;;;;;3.5;3.2;;;;;;;15.96;65.9502;95917.93;;;;
2022/07/12 00:58:00;;;;;;;3.5;3.2;;;;;;;15.96;65.9502;95917.93;;;;
2022/07/12 00:59:00;;;;;;;3.5;3.2;;;;;;;15.96;65.9502;95917.93;;;;
2022/07/12 01:00:01;;;;;;;3.5;3.2;;;;;;;15.96;65.9502;95917.93;;;;
2022/07/12 01:01:05;;;;;;;3.95;3.5;;;;;;;15.86;66.37109;95918.19;;;;
2022/07/12 01:02:06;;;;;;;3.95;3.5;;;;;;;15.86;66.37109;95918.19;;;;
2022/07/12 01:03:07;;;;;;;3.95;3.5;;;;;;;15.86;66.37109;95918.19;;;;
2022/07/12 01:04:07;;;;;;;3.95;3.5;;;;;;;15.86;66.37109;95918.19;;;;
2022/07/12 01:05:08;;;;;;;3.95;3.5;;;;;;;15.86;66.37109;95918.19;;;;
2022/07/12 01:06:09;;;;;;;3.95;3.5;;;;;;;15.86;66.37109;95918.19;;;;
2022/07/12 01:07:10;;;;;;;3.95;3.5;;;;;;;15.86;66.37109;95918.19;;;;
2022/07/12 01:08:11;;;;;;;3.95;3.5;;;;;;;15.86;66.37109;95918.19;;;;
2022/07/12 01:09:13;;;;;;;3.95;3.5;;;;;;;15.86;66.37109;95918.19;;;;
2022/07/12 01:10:14;;;;;;;3.95;3.5;;;;;;;15.86;66.37109;95918.19;;;;
2022/07/12 01:11:15;;;;;;;3.65;3.35;;;;;;;15.61;66.78223;95914.76;;;;
2022/07/12 01:12:16;;;;;;;3.65;3.35;;;;;;;15.61;66.78223;95914.76;;;;
2022/07/12 01:13:18;;;;;;;3.65;3.35;;;;;;;15.61;66.78223;95914.76;;;;
2022/07/12 01:14:18;;;;;;;3.65;3.35;;;;;;;15.61;66.78223;95914.76;;;;
2022/07/12 01:15:20;;;;;;;3.65;3.35;;;;;;;15.61;66.78223;95914.76;;;;
2022/07/12 01:16:22;;;;;;;3.65;3.35;;;;;;;15.61;66.78223;95914.76;;;;
2022/07/12 01:17:23;;;;;;;3.65;3.35;;;;;;;15.61;66.78223;95914.76;;;;
2022/07/12 01:18:27;;;;;;;3.65;3.35;;;;;;;15.61;66.78223;95914.76;;;;
2022/07/12 01:19:28;;;;;;;3.65;3.35;;;;;;;15.61;66.78223;95914.76;;;;
2022/07/12 01:20:30;;;;;;;3.65;3.35;;;;;;;15.61;66.78223;95914.76;;;;
2022/07/12 01:21:32;;;;;;;4.6;3.400001;;;;;;;15.3;67.30176;95916.69;;;;
2022/07/12 01:22:37;;;;;;;4.6;3.400001;;;;;;;15.3;67.30176;95916.69;;;;
2022/07/12 01:23:41;;;;;;;4.6;3.400001;;;;;;;15.3;67.30176;95916.69;;;;
2022/07/12 01:24:41;;;;;;;4.6;3.400001;;;;;;;15.3;67.30176;95916.69;;;;
2022/07/12 01:25:42;;;;;;;4.6;3.400001;;;;;;;15.3;67.30176;95916.69;;;;
2022/07/12 01:26:43;;;;;;;4.6;3.400001;;;;;;;15.3;67.30176;95916.69;;;;
2022/07/12 01:27:43;;;;;;;4.6;3.400001;;;;;;;15.3;67.30176;95916.69;;;;
2022/07/12 01:28:44;;;;;;;4.6;3.400001;;;;;;;15.3;67.30176;95916.69;;;;
2022/07/12 01:29:45;;;;;;;4.6;3.400001;;;;;;;15.3;67.30176;95916.69;;;;
2022/07/12 01:30:46;;;;;;;4.6;3.400001;;;;;;;15.3;67.30176;95916.69;;;;
2022/07/12 01:31:46;;;;;;;4.6;3.400001;;;;;;;15.3;67.30176;95916.69;;;;
2022/07/12 01:32:47;;;;;;;3.8;3.5;;;;;;;14.87;67.94434;95924.52;;;;
2022/07/12 01:33:49;;;;;;;3.8;3.5;;;;;;;14.87;67.94434;95924.52;;;;
2022/07/12 01:34:50;;;;;;;3.8;3.5;;;;;;;14.87;67.94434;95924.52;;;;
2022/07/12 01:35:53;;;;;;;3.8;3.5;;;;;;;14.87;67.94434;95924.52;;;;
2022/07/12 01:36:53;;;;;;;3.8;3.5;;;;;;;14.87;67.94434;95924.52;;;;
2022/07/12 01:37:54;;;;;;;3.8;3.5;;;;;;;14.87;67.94434;95924.52;;;;
2022/07/12 01:38:55;;;;;;;3.8;3.5;;;;;;;14.87;67.94434;95924.52;;;;
2022/07/12 01:39:56;;;;;;;3.8;3.5;;;;;;;14.87;67.94434;95924.52;;;;
2022/07/12 01:40:58;;;;;;;3.8;3.5;;;;;;;14.87;67.94434;95924.52;;;;
2022/07/12 01:41:59;;;;;;;3.8;3.5;;;;;;;14.87;67.94434;95924.52;;;;
2022/07/12 01:42:59;;;;;;;3.8;3.5;;;;;;;14.53;68.56641;95924.59;;;;
2022/07/12 01:44:00;;;;;;;3.8;3.5;;;;;;;14.53;68.56641;95924.59;;;;
2022/07/12 01:45:00;;;;;;;3.8;3.5;;;;;;;14.53;68.56641;95924.59;;;;
2022/07/12 01:46:02;;;;;;;3.8;3.5;;;;;;;14.53;68.56641;95924.59;;;;
2022/07/12 01:47:03;;;;;;;3.8;3.5;;;;;;;14.53;68.56641;95924.59;;;;
2022/07/12 01:48:04;;;;;;;3.8;3.5;;;;;;;14.53;68.56641;95924.59;;;;
2022/07/12 01:49:04;;;;;;;3.8;3.5;;;;;;;14.53;68.56641;95924.59;;;;
2022/07/12 01:50:05;;;;;;;3.8;3.5;;;;;;;14.53;68.56641;95924.59;;;;
2022/07/12 01:51:07;;;;;;;3.8;3.5;;;;;;;14.53;68.56641;95924.59;;;;
2022/07/12 01:52:08;;;;;;;3.8;3.5;;;;;;;14.53;68.56641;95924.59;;;;
2022/07/12 01:53:11;;;;;;;3.8;3.5;;;;;;;14.53;68.56641;95924.59;;;;
2022/07/12 01:54:12;;;;;;;5.15;4.050001;;;;;;;14.21;69.11523;95922.12;;;;
2022/07/12 01:55:12;;;;;;;5.15;4.050001;;;;;;;14.21;69.11523;95922.12;;;;
2022/07/12 01:56:13;;;;;;;5.15;4.050001;;;;;;;14.21;69.11523;95922.12;;;;
2022/07/12 01:57:13;;;;;;;5.15;4.050001;;;;;;;14.21;69.11523;95922.12;;;;
2022/07/12 01:58:14;;;;;;;5.15;4.050001;;;;;;;14.21;69.11523;95922.12;;;;
2022/07/12 01:59:16;;;;;;;5.15;4.050001;;;;;;;14.21;69.11523;95922.12;;;;
2022/07/12 02:00:19;;;;;;;5.15;4.050001;;;;;;;14.21;69.11523;95922.12;;;;
2022/07/12 02:01:19;;;;;;;5.15;4.050001;;;;;;;14.21;69.11523;95922.12;;;;
2022/07/12 02:02:20;;;;;;;5.15;4.050001;;;;;;;14.21;69.11523;95922.12;;;;
2022/07/12 02:03:22;;;;;;;5.15;4.050001;;;;;;;14.21;69.11523;95922.12;;;;
2022/07/12 02:04:22;;;;;;;4;3.7;;;;;;;14;69.61328;95923.83;;;;
2022/07/12 02:05:23;;;;;;;4;3.7;;;;;;;14;69.61328;95923.83;;;;
2022/07/12 02:06:24;;;;;;;4;3.7;;;;;;;14;69.61328;95923.83;;;;
2022/07/12 02:07:25;;;;;;;4;3.7;;;;;;;14;69.61328;95923.83;;;;
2022/07/12 02:08:26;;;;;;;4;3.7;;;;;;;14;69.61328;95923.83;;;;
2022/07/12 02:09:27;;;;;;;4;3.7;;;;;;;14;69.61328;95923.83;;;;
2022/07/12 02:10:28;;;;;;;4;3.7;;;;;;;14;69.61328;95923.83;;;;
2022/07/12 02:11:28;;;;;;;4;3.7;;;;;;;14;69.61328;95923.83;;;;
2022/07/12 02:12:29;;;;;;;4;3.7;;;;;;;14;69.61328;95923.83;;;;
2022/07/12 02:13:29;;;;;;;4;3.7;;;;;;;14;69.61328;95923.83;;;;
2022/07/12 02:14:30;;;;;;;4;3.7;;;;;;;14;69.61328;95923.83;;;;
2022/07/12 02:15:31;;;;;;;4;3.6;;;;;;;13.86;70.04688;95916.06;;;;
2022/07/12 02:16:31;;;;;;;4;3.6;;;;;;;13.86;70.04688;95916.06;;;;
2022/07/12 02:17:32;;;;;;;4;3.6;;;;;;;13.86;70.04688;95916.06;;;;
2022/07/12 02:18:33;;;;;;;4;3.6;;;;;;;13.86;70.04688;95916.06;;;;
2022/07/12 02:19:33;;;;;;;4;3.6;;;;;;;13.86;70.04688;95916.06;;;;
2022/07/12 02:20:33;;;;;;;4;3.6;;;;;;;13.86;70.04688;95916.06;;;;
2022/07/12 02:21:34;;;;;;;4;3.6;;;;;;;13.86;70.04688;95916.06;;;;
2022/07/12 02:22:34;;;;;;;4;3.6;;;;;;;13.86;70.04688;95916.06;;;;
2022/07/12 02:23:35;;;;;;;4;3.6;;;;;;;13.86;70.04688;95916.06;;;;
2022/07/12 02:24:35;;;;;;;4;3.6;;;;;;;13.86;70.04688;95916.06;;;;
2022/07/12 02:25:36;;;;;;;5.25;3.5;;;;;;;13.77;70.41309;95916.04;;;;
2022/07/12 02:26:36;;;;;;;5.25;3.5;;;;;;;13.77;70.41309;95916.04;;;;
2022/07/12 02:27:37;;;;;;;5.25;3.5;;;;;;;13.77;70.41309;95916.04;;;;
2022/07/12 02:28:39;;;;;;;5.25;3.5;;;;;;;13.77;70.41309;95916.04;;;;
2022/07/12 02:29:41;;;;;;;5.25;3.5;;;;;;;13.77;70.41309;95916.04;;;;
2022/07/12 02:30:42;;;;;;;5.25;3.5;;;;;;;13.77;70.41309;95916.04;;;;
2022/07/12 02:31:42;;;;;;;5.25;3.5;;;;;;;13.77;70.41309;95916.04;;;;
2022/07/12 02:32:43;;;;;;;5.25;3.5;;;;;;;13.77;70.41309;95916.04;;;;
2022/07/12 02:33:43;;;;;;;5.25;3.5;;;;;;;13.77;70.41309;95916.04;;;;
2022/07/12 02:34:43;;;;;;;5.25;3.5;;;;;;;13.77;70.41309;95916.04;;;;
2022/07/12 02:35:44;;;;;;;5.25;3.5;;;;;;;13.77;70.41309;95916.04;;;;
2022/07/12 02:36:45;;;;;;;5.800001;4.1;;;;;;;13.51;70.87012;95914.48;;;;
2022/07/12 02:37:45;;;;;;;5.800001;4.1;;;;;;;13.51;70.87012;95914.48;;;;
2022/07/12 02:38:46;;;;;;;5.800001;4.1;;;;;;;13.51;70.87012;95914.48;;;;
2022/07/12 02:39:46;;;;;;;5.800001;4.1;;;;;;;13.51;70.87012;95914.48;;;;
2022/07/12 02:40:54;;;;;;;5.800001;4.1;;;;;;;13.51;70.87012;95914.48;;;;
2022/07/12 02:41:54;;;;;;;5.800001;4.1;;;;;;;13.51;70.87012;95914.48;;;;
2022/07/12 02:42:55;;;;;;;5.800001;4.1;;;;;;;13.51;70.87012;95914.48;;;;
2022/07/12 02:43:55;;;;;;;5.800001;4.1;;;;;;;13.51;70.87012;95914.48;;;;
2022/07/12 02:44:56;;;;;;;5.800001;4.1;;;;;;;13.51;70.87012;95914.48;;;;
2022/07/12 02:45:56;;;;;;;5.800001;4.1;;;;;;;13.51;70.87012;95914.48;;;;
2022/07/12 02:47:04;;;;;;;4.45;4.050001;;;;;;;13.34;71.31836;95923.17;;;;
2022/07/12 02:48:04;;;;;;;4.45;4.050001;;;;;;;13.34;71.31836;95923.17;;;;
2022/07/12 02:49:05;;;;;;;4.45;4.050001;;;;;;;13.34;71.31836;95923.17;;;;
2022/07/12 02:50:05;;;;;;;4.45;4.050001;;;;;;;13.34;71.31836;95923.17;;;;
2022/07/12 02:51:07;;;;;;;4.45;4.050001;;;;;;;13.34;71.31836;95923.17;;;;
2022/07/12 02:52:09;;;;;;;4.45;4.050001;;;;;;;13.34;71.31836;95923.17;;;;
2022/07/12 02:53:09;;;;;;;4.45;4.050001;;;;;;;13.34;71.31836;95923.17;;;;
2022/07/12 02:54:10;;;;;;;4.45;4.050001;;;;;;;13.34;71.31836;95923.17;;;;
2022/07/12 02:55:10;;;;;;;4.45;4.050001;;;;;;;13.34;71.31836;95923.17;;;;
2022/07/12 02:56:11;;;;;;;4.45;4.050001;;;;;;;13.34;71.31836;95923.17;;;;
2022/07/12 02:57:12;;;;;;;4.45;4.050001;;;;;;;13.34;71.31836;95923.17;;;;
2022/07/12 02:58:12;;;;;;;4.600001;4.100001;;;;;;;13.08;71.70996;95923.18;;;;
2022/07/12 02:59:12;;;;;;;4.600001;4.100001;;;;;;;13.08;71.70996;95923.18;;;;
2022/07/12 03:00:13;;;;;;;4.600001;4.100001;;;;;;;13.08;71.70996;95923.18;;;;
2022/07/12 03:01:14;;;;;;;4.600001;4.100001;;;;;;;13.08;71.70996;95923.18;;;;
2022/07/12 03:02:14;;;;;;;4.600001;4.100001;;;;;;;13.08;71.70996;95923.18;;;;
2022/07/12 03:03:15;;;;;;;4.600001;4.100001;;;;;;;13.08;71.70996;95923.18;;;;
2022/07/12 03:04:15;;;;;;;4.600001;4.100001;;;;;;;13.08;71.70996;95923.18;;;;
2022/07/12 03:05:16;;;;;;;4.600001;4.100001;;;;;;;13.08;71.70996;95923.18;;;;
2022/07/12 03:06:16;;;;;;;4.600001;4.100001;;;;;;;13.08;71.70996;95923.18;;;;
2022/07/12 03:07:17;;;;;;;4.600001;4.100001;;;;;;;13.08;71.70996;95923.18;;;;
2022/07/12 03:08:17;;;;;;;4.5;4.1;;;;;;;12.9;72.10352;95916.8;;;;
2022/07/12 03:09:18;;;;;;;4.5;4.1;;;;;;;12.9;72.10352;95916.8;;;;
2022/07/12 03:10:18;;;;;;;4.5;4.1;;;;;;;12.9;72.10352;95916.8;;;;
2022/07/12 03:11:19;;;;;;;4.5;4.1;;;;;;;12.9;72.10352;95916.8;;;;
2022/07/12 03:12:19;;;;;;;4.5;4.1;;;;;;;12.9;72.10352;95916.8;;;;
2022/07/12 03:13:20;;;;;;;4.5;4.1;;;;;;;12.9;72.10352;95916.8;;;;
2022/07/12 03:14:20;;;;;;;4.5;4.1;;;;;;;12.9;72.10352;95916.8;;;;
2022/07/12 03:15:21;;;;;;;4.5;4.1;;;;;;;12.9;72.10352;95916.8;;;;
2022/07/12 03:16:21;;;;;;;4.5;4.1;;;;;;;12.9;72.10352;95916.8;;;;
2022/07/12 03:17:22;;;;;;;4.5;4.1;;;;;;;12.9;72.10352;95916.8;;;;
2022/07/12 03:18:22;;;;;;;4.5;4.1;;;;;;;12.9;72.10352;95916.8;;;;
2022/07/12 03:19:23;;;;;;;4.299999;3.95;;;;;;;12.68;72.46875;95925.66;;;;
2022/07/12 03:20:23;;;;;;;4.299999;3.95;;;;;;;12.68;72.46875;95925.66;;;;
2022/07/12 03:21:24;;;;;;;4.299999;3.95;;;;;;;12.68;72.46875;95925.66;;;;
2022/07/12 03:22:24;;;;;;;4.299999;3.95;;;;;;;12.68;72.46875;95925.66;;;;
2022/07/12 03:23:25;;;;;;;4.299999;3.95;;;;;;;12.68;72.46875;95925.66;;;;
2022/07/12 03:24:26;;;;;;;4.299999;3.95;;;;;;;12.68;72.46875;95925.66;;;;
2022/07/12 03:25:26;;;;;;;4.299999;3.95;;;;;;;12.68;72.46875;95925.66;;;;
2022/07/12 03:26:27;;;;;;;4.299999;3.95;;;;;;;12.68;72.46875;95925.66;;;;
2022/07/12 03:27:27;;;;;;;4.299999;3.95;;;;;;;12.68;72.46875;95925.66;;;;
2022/07/12 03:28:27;;;;;;;4.299999;3.95;;;;;;;12.68;72.46875;95925.66;;;;
2022/07/12 03:29:28;;;;;;;4.6;4.050001;;;;;;;12.58;72.73242;95920.39;;;;
2022/07/12 03:30:28;;;;;;;4.6;4.050001;;;;;;;12.58;72.73242;95920.39;;;;
2022/07/12 03:31:29;;;;;;;4.6;4.050001;;;;;;;12.58;72.73242;95920.39;;;;
2022/07/12 03:32:29;;;;;;;4.6;4.050001;;;;;;;12.58;72.73242;95920.39;;;;
2022/07/12 03:33:30;;;;;;;4.6;4.050001;;;;;;;12.58;72.73242;95920.39;;;;
2022/07/12 03:34:31;;;;;;;4.6;4.050001;;;;;;;12.58;72.73242;95920.39;;;;
2022/07/12 03:35:31;;;;;;;4.6;4.050001;;;;;;;12.58;72.73242;95920.39;;;;
2022/07/12 03:36:32;;;;;;;4.6;4.050001;;;;;;;12.58;72.73242;95920.39;;;;
2022/07/12 03:37:32;;;;;;;4.6;4.050001;;;;;;;12.58;72.73242;95920.39;;;;
2022/07/12 03:38:42;;;;;;;4.6;4.050001;;;;;;;12.58;72.73242;95920.39;;;;
2022/07/12 03:39:42;;;;;;;4.6;4.050001;;;;;;;12.58;72.73242;95920.39;;;;
2022/07/12 03:40:44;;;;;;;6.900001;4.3;;;;;;;12.44;73.02148;95926.34;;;;
2022/07/12 03:41:44;;;;;;;6.900001;4.3;;;;;;;12.44;73.02148;95926.34;;;;
2022/07/12 03:42:44;;;;;;;6.900001;4.3;;;;;;;12.44;73.02148;95926.34;;;;
2022/07/12 03:43:46;;;;;;;6.900001;4.3;;;;;;;12.44;73.02148;95926.34;;;;
2022/07/12 03:44:46;;;;;;;6.900001;4.3;;;;;;;12.44;73.02148;95926.34;;;;
2022/07/12 03:45:47;;;;;;;6.900001;4.3;;;;;;;12.44;73.02148;95926.34;;;;
2022/07/12 03:46:47;;;;;;;6.900001;4.3;;;;;;;12.44;73.02148;95926.34;;;;
2022/07/12 03:47:48;;;;;;;6.900001;4.3;;;;;;;12.44;73.02148;95926.34;;;;
2022/07/12 03:48:48;;;;;;;6.900001;4.3;;;;;;;12.44;73.02148;95926.34;;;;
2022/07/12 03:49:49;;;;;;;6.900001;4.3;;;;;;;12.44;73.02148;95926.34;;;;
2022/07/12 03:50:50;;;;;;;4.65;4.15;;;;;;;12.38;73.28418;95939.9;;;;
2022/07/12 03:51:50;;;;;;;4.65;4.15;;;;;;;12.38;73.28418;95939.9;;;;
2022/07/12 03:52:51;;;;;;;4.65;4.15;;;;;;;12.38;73.28418;95939.9;;;;
2022/07/12 03:53:51;;;;;;;4.65;4.15;;;;;;;12.38;73.28418;95939.9;;;;
2022/07/12 03:54:52;;;;;;;4.65;4.15;;;;;;;12.38;73.28418;95939.9;;;;
2022/07/12 03:55:52;;;;;;;4.65;4.15;;;;;;;12.38;73.28418;95939.9;;;;
2022/07/12 03:57:26;;;;;;;4.65;4.15;;;;;;;12.38;73.28418;95939.9;;;;
2022/07/12 03:58:26;;;;;;;4.65;4.15;;;;;;;12.38;73.28418;95939.9;;;;
2022/07/12 03:59:27;;;;;;;4.65;4.15;;;;;;;12.38;73.28418;95939.9;;;;
2022/07/12 04:00:27;;;;;;;4.65;4.15;;;;;;;12.38;73.28418;95939.9;;;;
2022/07/12 04:01:28;;;;;;;4.699999;4.3;;;;;;;12.34;73.45996;95949.39;;;;
2022/07/12 04:02:28;;;;;;;4.699999;4.3;;;;;;;12.34;73.45996;95949.39;;;;
2022/07/12 04:03:29;;;;;;;4.699999;4.3;;;;;;;12.34;73.45996;95949.39;;;;
2022/07/12 04:04:29;;;;;;;4.699999;4.3;;;;;;;12.34;73.45996;95949.39;;;;
2022/07/12 04:05:30;;;;;;;4.699999;4.3;;;;;;;12.34;73.45996;95949.39;;;;
2022/07/12 04:06:30;;;;;;;4.699999;4.3;;;;;;;12.34;73.45996;95949.39;;;;
2022/07/12 04:07:30;;;;;;;4.699999;4.3;;;;;;;12.34;73.45996;95949.39;;;;
2022/07/12 04:08:31;;;;;;;4.699999;4.3;;;;;;;12.34;73.45996;95949.39;;;;
2022/07/12 04:09:31;;;;;;;4.699999;4.3;;;;;;;12.34;73.45996;95949.39;;;;
2022/07/12 04:10:32;;;;;;;4.699999;4.3;;;;;;;12.34;73.45996;95949.39;;;;
2022/07/12 04:11:33;;;;;;;4.699999;4.3;;;;;;;12.34;73.45996;95949.39;;;;
2022/07/12 04:12:33;;;;;;;5.550001;4.95;;;;;;;12.4;73.59863;95960.94;;;;
2022/07/12 04:13:34;;;;;;;5.550001;4.95;;;;;;;12.4;73.59863;95960.94;;;;
2022/07/12 04:14:35;;;;;;;5.550001;4.95;;;;;;;12.4;73.59863;95960.94;;;;
2022/07/12 04:15:35;;;;;;;5.550001;4.95;;;;;;;12.4;73.59863;95960.94;;;;
2022/07/12 04:16:36;;;;;;;5.550001;4.95;;;;;;;12.4;73.59863;95960.94;;;;
2022/07/12 04:17:36;;;;;;;5.550001;4.95;;;;;;;12.4;73.59863;95960.94;;;;
2022/07/12 04:18:37;;;;;;;5.550001;4.95;;;;;;;12.4;73.59863;95960.94;;;;
2022/07/12 04:19:38;;;;;;;5.550001;4.95;;;;;;;12.4;73.59863;95960.94;;;;
2022/07/12 04:20:38;;;;;;;5.550001;4.95;;;;;;;12.4;73.59863;95960.94;;;;
2022/07/12 04:21:39;;;;;;;5.550001;4.95;;;;;;;12.4;73.59863;95960.94;;;;
2022/07/12 04:22:40;;;;;;;5.550001;4.95;;;;;;;12.4;73.59863;95960.94;;;;
2022/07/12 04:23:40;;;;;;;5.4;4.900001;;;;;;;12.42;73.75488;95964.58;;;;
2022/07/12 04:24:41;;;;;;;5.4;4.900001;;;;;;;12.42;73.75488;95964.58;;;;
2022/07/12 04:25:41;;;;;;;5.4;4.900001;;;;;;;12.42;73.75488;95964.58;;;;
2022/07/12 04:26:42;;;;;;;5.4;4.900001;;;;;;;12.42;73.75488;95964.58;;;;
2022/07/12 04:27:42;;;;;;;5.4;4.900001;;;;;;;12.42;73.75488;95964.58;;;;
2022/07/12 04:28:43;;;;;;;5.4;4.900001;;;;;;;12.42;73.75488;95964.58;;;;
2022/07/12 04:29:43;;;;;;;5.4;4.900001;;;;;;;12.42;73.75488;95964.58;;;;
2022/07/12 04:30:44;;;;;;;5.4;4.900001;;;;;;;12.42;73.75488;95964.58;;;;
2022/07/12 04:31:44;;;;;;;5.4;4.900001;;;;;;;12.42;73.75488;95964.58;;;;
2022/07/12 04:32:45;;;;;;;5.4;4.900001;;;;;;;12.42;73.75488;95964.58;;;;
2022/07/12 04:33:46;;;;;;;6.45;5.15;;;;;;;12.54;73.88281;95958.04;;;;
2022/07/12 04:34:46;;;;;;;6.45;5.15;;;;;;;12.54;73.88281;95958.04;;;;
2022/07/12 04:35:47;;;;;;;6.45;5.15;;;;;;;12.54;73.88281;95958.04;;;;
2022/07/12 04:36:48;;;;;;;6.45;5.15;;;;;;;12.54;73.88281;95958.04;;;;
2022/07/12 04:37:49;;;;;;;6.45;5.15;;;;;;;12.54;73.88281;95958.04;;;;
2022/07/12 04:38:50;;;;;;;6.45;5.15;;;;;;;12.54;73.88281;95958.04;;;;
2022/07/12 04:39:50;;;;;;;6.45;5.15;;;;;;;12.54;73.88281;95958.04;;;;
2022/07/12 04:40:51;;;;;;;6.45;5.15;;;;;;;12.54;73.88281;95958.04;;;;
2022/07/12 04:41:51;;;;;;;6.45;5.15;;;;;;;12.54;73.88281;95958.04;;;;
2022/07/12 04:42:53;;;;;;;6.45;5.15;;;;;;;12.54;73.88281;95958.04;;;;
2022/07/12 04:43:53;;;;;;;6.45;5.15;;;;;;;12.54;73.88281;95958.04;;;;
2022/07/12 04:44:54;;;;;;;5.550001;4.950001;;;;;;;12.65;74.03027;95958.33;;;;
2022/07/12 04:45:54;;;;;;;5.550001;4.950001;;;;;;;12.65;74.03027;95958.33;;;;
2022/07/12 04:46:55;;;;;;;5.550001;4.950001;;;;;;;12.65;74.03027;95958.33;;;;
2022/07/12 04:47:55;;;;;;;5.550001;4.950001;;;;;;;12.65;74.03027;95958.33;;;;
2022/07/12 04:48:56;;;;;;;5.550001;4.950001;;;;;;;12.65;74.03027;95958.33;;;;
2022/07/12 04:49:56;;;;;;;5.550001;4.950001;;;;;;;12.65;74.03027;95958.33;;;;
2022/07/12 04:50:56;;;;;;;5.550001;4.950001;;;;;;;12.65;74.03027;95958.33;;;;
2022/07/12 04:51:57;;;;;;;5.550001;4.950001;;;;;;;12.65;74.03027;95958.33;;;;
2022/07/12 04:52:58;;;;;;;5.550001;4.950001;;;;;;;12.65;74.03027;95958.33;;;;
2022/07/12 04:53:58;;;;;;;5.550001;4.950001;;;;;;;12.65;74.03027;95958.33;;;;
2022/07/12 04:54:59;;;;;;;6.949999;5.199999;;;;;;;12.99;74.0459;95960.67;;;;
2022/07/12 04:55:59;;;;;;;6.949999;5.199999;;;;;;;12.99;74.0459;95960.67;;;;
2022/07/12 04:57:00;;;;;;;6.949999;5.199999;;;;;;;12.99;74.0459;95960.67;;;;
2022/07/12 04:58:00;;;;;;;6.949999;5.199999;;;;;;;12.99;74.0459;95960.67;;;;
2022/07/12 04:59:01;;;;;;;6.949999;5.199999;;;;;;;12.99;74.0459;95960.67;;;;
2022/07/12 05:00:02;;;;;;;6.949999;5.199999;;;;;;;12.99;74.0459;95960.67;;;;
2022/07/12 05:01:04;;;;;;;6.949999;5.199999;;;;;;;12.99;74.0459;95960.67;;;;
2022/07/12 05:02:05;;;;;;;6.949999;5.199999;;;;;;;12.99;74.0459;95960.67;;;;
2022/07/12 05:03:05;;;;;;;6.949999;5.199999;;;;;;;12.99;74.0459;95960.67;;;;
2022/07/12 05:04:05;;;;;;;6.949999;5.199999;;;;;;;12.99;74.0459;95960.67;;;;
2022/07/12 05:05:06;;;;;;;6.949999;5.199999;;;;;;;12.99;74.0459;95960.67;;;;
2022/07/12 05:06:07;;;;;;;7.55;6.749999;;;;;;;13.54;73.72559;95967.58;;;;
2022/07/12 05:07:08;;;;;;;7.55;6.749999;;;;;;;13.54;73.72559;95967.58;;;;
2022/07/12 05:08:09;;;;;;;7.55;6.749999;;;;;;;13.54;73.72559;95967.58;;;;
2022/07/12 05:09:09;;;;;;;7.55;6.749999;;;;;;;13.54;73.72559;95967.58;;;;
2022/07/12 05:10:09;;;;;;;7.55;6.749999;;;;;;;13.54;73.72559;95967.58;;;;
2022/07/12 05:11:10;;;;;;;7.55;6.749999;;;;;;;13.54;73.72559;95967.58;;;;
2022/07/12 05:12:10;;;;;;;7.55;6.749999;;;;;;;13.54;73.72559;95967.58;;;;
2022/07/12 05:13:11;;;;;;;7.55;6.749999;;;;;;;13.54;73.72559;95967.58;;;;
2022/07/12 05:14:11;;;;;;;7.55;6.749999;;;;;;;13.54;73.72559;95967.58;;;;
2022/07/12 05:15:12;;;;;;;7.55;6.749999;;;;;;;13.54;73.72559;95967.58;;;;
2022/07/12 05:16:12;;;;;;;7.050001;6.349999;;;;;;;14.12;73.44141;95970.47;;;;
2022/07/12 05:17:13;;;;;;;7.050001;6.349999;;;;;;;14.12;73.44141;95970.47;;;;
2022/07/12 05:18:13;;;;;;;7.050001;6.349999;;;;;;;14.12;73.44141;95970.47;;;;
2022/07/12 05:19:15;;;;;;;7.050001;6.349999;;;;;;;14.12;73.44141;95970.47;;;;
2022/07/12 05:20:16;;;;;;;7.050001;6.349999;;;;;;;14.12;73.44141;95970.47;;;;
2022/07/12 05:21:16;;;;;;;7.050001;6.349999;;;;;;;14.12;73.44141;95970.47;;;;
2022/07/12 05:22:17;;;;;;;7.050001;6.349999;;;;;;;14.12;73.44141;95970.47;;;;
2022/07/12 05:23:17;;;;;;;7.050001;6.349999;;;;;;;14.12;73.44141;95970.47;;;;
2022/07/12 05:24:18;;;;;;;7.050001;6.349999;;;;;;;14.12;73.44141;95970.47;;;;
2022/07/12 05:25:19;;;;;;;7.050001;6.349999;;;;;;;14.12;73.44141;95970.47;;;;
2022/07/12 05:26:20;;;;;;;7.050001;6.349999;;;;;;;14.12;73.44141;95970.47;;;;
2022/07/12 05:27:21;;;;;;;6.949999;5.55;;;;;;;14.56;73.16895;95975.11;;;;
2022/07/12 05:28:21;;;;;;;6.949999;5.55;;;;;;;14.56;73.16895;95975.11;;;;
2022/07/12 05:29:21;;;;;;;6.949999;5.55;;;;;;;14.56;73.16895;95975.11;;;;
2022/07/12 05:30:22;;;;;;;6.949999;5.55;;;;;;;14.56;73.16895;95975.11;;;;
2022/07/12 05:31:24;;;;;;;6.949999;5.55;;;;;;;14.56;73.16895;95975.11;;;;
2022/07/12 05:32:25;;;;;;;6.949999;5.55;;;;;;;14.56;73.16895;95975.11;;;;
2022/07/12 05:33:25;;;;;;;6.949999;5.55;;;;;;;14.56;73.16895;95975.11;;;;
2022/07/12 05:34:26;;;;;;;6.949999;5.55;;;;;;;14.56;73.16895;95975.11;;;;
2022/07/12 05:35:26;;;;;;;6.949999;5.55;;;;;;;14.56;73.16895;95975.11;;;;
2022/07/12 05:36:27;;;;;;;6.949999;5.55;;;;;;;14.56;73.16895;95975.11;;;;
2022/07/12 05:37:27;;;;;;;6.949999;5.55;;;;;;;14.56;73.16895;95975.11;;;;